sensor_id;sensor_type;location;lat;lon;timestamp;P1;durP1;ratioP1;P2;durP2;ratioP2
82415;SDS011;72058;47.782;10.618;2024-02-16T00:00:17;8.23;;;7.07;;
82415;SDS011;72058;47.782;10.618;2024-02-16T00:02:43;9.32;;;6.07;;
82415;SDS011;72058;47.782;10.618;2024-02-16T00:05:09;7.57;;;5.75;;
82415;SDS011;72058;47.782;10.618;2024-02-16T00:07:38;9.18;;;7.85;;
82415;SDS011;72058;47.782;10.618;2024-02-16T00:10:04;8.10;;;7.30;;
82415;SDS011;72058;47.782;10.618;2024-02-16T00:12:30;6.47;;;5.82;;
82415;SDS011;72058;47.782;10.618;2024-02-16T00:14:57;6.50;;;5.90;;
82415;SDS011;72058;47.782;10.618;2024-02-16T00:17:23;6.15;;;5.30;;
82415;SDS011;72058;47.782;10.618;2024-02-16T00:19:51;8.20;;;5.45;;
82415;SDS011;72058;47.782;10.618;2024-02-16T00:22:17;5.13;;;4.50;;
82415;SDS011;72058;47.782;10.618;2024-02-16T00:24:42;5.77;;;4.97;;
82415;SDS011;72058;47.782;10.618;2024-02-16T00:27:08;7.93;;;6.85;;
82415;SDS011;72058;47.782;10.618;2024-02-16T00:29:33;9.30;;;6.97;;
82415;SDS011;72058;47.782;10.618;2024-02-16T00:31:59;6.07;;;5.23;;
82415;SDS011;72058;47.782;10.618;2024-02-16T00:34:25;7.47;;;6.07;;
82415;SDS011;72058;47.782;10.618;2024-02-16T00:36:50;6.03;;;5.05;;
82415;SDS011;72058;47.782;10.618;2024-02-16T00:39:17;5.85;;;5.13;;
82415;SDS011;72058;47.782;10.618;2024-02-16T00:41:42;5.43;;;4.85;;
82415;SDS011;72058;47.782;10.618;2024-02-16T00:44:08;6.78;;;4.28;;
82415;SDS011;72058;47.782;10.618;2024-02-16T00:46:35;5.57;;;4.18;;
82415;SDS011;72058;47.782;10.618;2024-02-16T00:49:01;4.95;;;4.28;;
82415;SDS011;72058;47.782;10.618;2024-02-16T00:51:26;9.03;;;5.77;;
82415;SDS011;72058;47.782;10.618;2024-02-16T00:53:51;5.47;;;4.95;;
82415;SDS011;72058;47.782;10.618;2024-02-16T00:56:17;5.50;;;4.80;;
82415;SDS011;72058;47.782;10.618;2024-02-16T00:58:43;7.53;;;5.35;;
82415;SDS011;72058;47.782;10.618;2024-02-16T01:01:08;6.50;;;4.50;;
82415;SDS011;72058;47.782;10.618;2024-02-16T01:03:36;7.28;;;5.05;;
82415;SDS011;72058;47.782;10.618;2024-02-16T01:06:02;6.93;;;4.97;;
82415;SDS011;72058;47.782;10.618;2024-02-16T01:08:28;5.18;;;4.35;;
82415;SDS011;72058;47.782;10.618;2024-02-16T01:10:55;6.47;;;5.00;;
82415;SDS011;72058;47.782;10.618;2024-02-16T01:13:20;7.93;;;5.45;;
82415;SDS011;72058;47.782;10.618;2024-02-16T01:15:46;5.57;;;4.57;;
82415;SDS011;72058;47.782;10.618;2024-02-16T01:18:11;6.00;;;5.40;;
82415;SDS011;72058;47.782;10.618;2024-02-16T01:20:37;5.23;;;4.73;;
82415;SDS011;72058;47.782;10.618;2024-02-16T01:23:02;6.13;;;5.27;;
82415;SDS011;72058;47.782;10.618;2024-02-16T01:25:29;6.47;;;5.72;;
82415;SDS011;72058;47.782;10.618;2024-02-16T01:27:55;6.47;;;4.63;;
82415;SDS011;72058;47.782;10.618;2024-02-16T01:30:20;4.73;;;4.33;;
82415;SDS011;72058;47.782;10.618;2024-02-16T01:32:46;5.43;;;4.63;;
82415;SDS011;72058;47.782;10.618;2024-02-16T01:35:12;5.20;;;4.72;;
82415;SDS011;72058;47.782;10.618;2024-02-16T01:37:39;5.43;;;4.93;;
82415;SDS011;72058;47.782;10.618;2024-02-16T01:40:06;5.57;;;5.07;;
82415;SDS011;72058;47.782;10.618;2024-02-16T01:42:32;5.50;;;4.80;;
82415;SDS011;72058;47.782;10.618;2024-02-16T01:44:58;5.77;;;5.00;;
82415;SDS011;72058;47.782;10.618;2024-02-16T01:47:23;5.80;;;4.57;;
82415;SDS011;72058;47.782;10.618;2024-02-16T01:49:49;6.32;;;5.70;;
82415;SDS011;72058;47.782;10.618;2024-02-16T01:52:14;4.97;;;4.43;;
82415;SDS011;72058;47.782;10.618;2024-02-16T01:54:40;5.28;;;4.60;;
82415;SDS011;72058;47.782;10.618;2024-02-16T01:57:05;6.03;;;4.63;;
82415;SDS011;72058;47.782;10.618;2024-02-16T01:59:31;4.68;;;4.18;;
82415;SDS011;72058;47.782;10.618;2024-02-16T02:01:58;5.70;;;4.57;;
82415;SDS011;72058;47.782;10.618;2024-02-16T02:04:24;6.97;;;4.18;;
82415;SDS011;72058;47.782;10.618;2024-02-16T02:06:50;4.25;;;3.55;;
82415;SDS011;72058;47.782;10.618;2024-02-16T02:09:16;5.28;;;4.22;;
82415;SDS011;72058;47.782;10.618;2024-02-16T02:11:41;4.37;;;3.97;;
82415;SDS011;72058;47.782;10.618;2024-02-16T02:14:06;6.10;;;3.60;;
82415;SDS011;72058;47.782;10.618;2024-02-16T02:16:32;5.03;;;3.75;;
82415;SDS011;72058;47.782;10.618;2024-02-16T02:18:57;4.18;;;3.80;;
82415;SDS011;72058;47.782;10.618;2024-02-16T02:21:23;4.13;;;3.73;;
82415;SDS011;72058;47.782;10.618;2024-02-16T02:23:48;4.37;;;3.97;;
82415;SDS011;72058;47.782;10.618;2024-02-16T02:26:14;3.93;;;3.30;;
82415;SDS011;72058;47.782;10.618;2024-02-16T02:28:41;5.80;;;4.45;;
82415;SDS011;72058;47.782;10.618;2024-02-16T02:31:07;4.75;;;3.92;;
82415;SDS011;72058;47.782;10.618;2024-02-16T02:33:34;4.38;;;4.00;;
82415;SDS011;72058;47.782;10.618;2024-02-16T02:35:59;4.88;;;4.03;;
82415;SDS011;72058;47.782;10.618;2024-02-16T02:38:24;4.20;;;3.77;;
82415;SDS011;72058;47.782;10.618;2024-02-16T02:40:51;4.82;;;4.35;;
82415;SDS011;72058;47.782;10.618;2024-02-16T02:43:16;5.20;;;3.83;;
82415;SDS011;72058;47.782;10.618;2024-02-16T02:45:43;5.82;;;4.25;;
82415;SDS011;72058;47.782;10.618;2024-02-16T02:48:09;4.70;;;3.90;;
82415;SDS011;72058;47.782;10.618;2024-02-16T02:50:34;4.80;;;4.17;;
82415;SDS011;72058;47.782;10.618;2024-02-16T02:52:59;5.10;;;3.90;;
82415;SDS011;72058;47.782;10.618;2024-02-16T02:55:25;5.20;;;3.70;;
82415;SDS011;72058;47.782;10.618;2024-02-16T02:57:50;4.30;;;3.87;;
82415;SDS011;72058;47.782;10.618;2024-02-16T03:00:15;6.00;;;3.93;;
82415;SDS011;72058;47.782;10.618;2024-02-16T03:02:41;5.07;;;4.55;;
82415;SDS011;72058;47.782;10.618;2024-02-16T03:05:08;3.80;;;3.50;;
82415;SDS011;72058;47.782;10.618;2024-02-16T03:07:34;4.75;;;3.40;;
82415;SDS011;72058;47.782;10.618;2024-02-16T03:09:59;4.38;;;3.97;;
82415;SDS011;72058;47.782;10.618;2024-02-16T03:12:25;3.63;;;3.33;;
82415;SDS011;72058;47.782;10.618;2024-02-16T03:14:51;4.23;;;3.83;;
82415;SDS011;72058;47.782;10.618;2024-02-16T03:17:16;3.78;;;3.47;;
82415;SDS011;72058;47.782;10.618;2024-02-16T03:19:41;4.47;;;3.73;;
82415;SDS011;72058;47.782;10.618;2024-02-16T03:22:07;5.00;;;4.50;;
82415;SDS011;72058;47.782;10.618;2024-02-16T03:24:32;4.63;;;4.03;;
82415;SDS011;72058;47.782;10.618;2024-02-16T03:26:58;6.22;;;4.05;;
82415;SDS011;72058;47.782;10.618;2024-02-16T03:29:24;4.15;;;3.58;;
82415;SDS011;72058;47.782;10.618;2024-02-16T03:31:49;3.60;;;2.93;;
82415;SDS011;72058;47.782;10.618;2024-02-16T03:34:15;3.85;;;3.55;;
82415;SDS011;72058;47.782;10.618;2024-02-16T03:36:40;4.03;;;3.63;;
82415;SDS011;72058;47.782;10.618;2024-02-16T03:39:06;4.30;;;3.83;;
82415;SDS011;72058;47.782;10.618;2024-02-16T03:41:33;3.83;;;3.42;;
82415;SDS011;72058;47.782;10.618;2024-02-16T03:43:59;4.15;;;3.40;;
82415;SDS011;72058;47.782;10.618;2024-02-16T03:46:25;4.63;;;3.47;;
82415;SDS011;72058;47.782;10.618;2024-02-16T03:48:51;3.85;;;3.53;;
82415;SDS011;72058;47.782;10.618;2024-02-16T03:51:16;3.78;;;3.17;;
82415;SDS011;72058;47.782;10.618;2024-02-16T03:53:42;4.65;;;3.90;;
82415;SDS011;72058;47.782;10.618;2024-02-16T03:56:09;5.55;;;3.78;;
82415;SDS011;72058;47.782;10.618;2024-02-16T03:58:35;4.13;;;3.83;;
82415;SDS011;72058;47.782;10.618;2024-02-16T04:01:01;3.28;;;2.80;;
82415;SDS011;72058;47.782;10.618;2024-02-16T04:03:26;4.28;;;3.05;;
82415;SDS011;72058;47.782;10.618;2024-02-16T04:05:52;3.70;;;3.40;;
82415;SDS011;72058;47.782;10.618;2024-02-16T04:08:18;5.20;;;3.58;;
82415;SDS011;72058;47.782;10.618;2024-02-16T04:10:44;5.05;;;4.15;;
82415;SDS011;72058;47.782;10.618;2024-02-16T04:13:10;6.05;;;4.43;;
82415;SDS011;72058;47.782;10.618;2024-02-16T04:15:35;5.17;;;3.77;;
82415;SDS011;72058;47.782;10.618;2024-02-16T04:18:01;4.50;;;3.30;;
82415;SDS011;72058;47.782;10.618;2024-02-16T04:20:26;5.67;;;3.67;;
82415;SDS011;72058;47.782;10.618;2024-02-16T04:22:51;4.50;;;4.03;;
82415;SDS011;72058;47.782;10.618;2024-02-16T04:25:17;5.90;;;3.37;;
82415;SDS011;72058;47.782;10.618;2024-02-16T04:27:42;4.53;;;4.03;;
82415;SDS011;72058;47.782;10.618;2024-02-16T04:30:07;3.77;;;3.37;;
82415;SDS011;72058;47.782;10.618;2024-02-16T04:32:33;5.07;;;3.53;;
82415;SDS011;72058;47.782;10.618;2024-02-16T04:34:58;4.03;;;3.63;;
82415;SDS011;72058;47.782;10.618;2024-02-16T04:37:24;3.65;;;3.35;;
82415;SDS011;72058;47.782;10.618;2024-02-16T04:39:50;4.88;;;3.45;;
82415;SDS011;72058;47.782;10.618;2024-02-16T04:42:16;4.13;;;3.35;;
82415;SDS011;72058;47.782;10.618;2024-02-16T04:44:42;4.10;;;3.70;;
82415;SDS011;72058;47.782;10.618;2024-02-16T04:47:07;3.88;;;3.47;;
82415;SDS011;72058;47.782;10.618;2024-02-16T04:49:34;4.35;;;3.15;;
82415;SDS011;72058;47.782;10.618;2024-02-16T04:51:59;4.65;;;4.22;;
82415;SDS011;72058;47.782;10.618;2024-02-16T04:54:25;5.03;;;3.63;;
82415;SDS011;72058;47.782;10.618;2024-02-16T04:56:50;4.20;;;3.43;;
82415;SDS011;72058;47.782;10.618;2024-02-16T04:59:16;3.60;;;3.30;;
82415;SDS011;72058;47.782;10.618;2024-02-16T05:01:45;3.90;;;3.33;;
82415;SDS011;72058;47.782;10.618;2024-02-16T05:04:11;4.93;;;3.55;;
82415;SDS011;72058;47.782;10.618;2024-02-16T05:06:41;4.88;;;3.70;;
82415;SDS011;72058;47.782;10.618;2024-02-16T05:09:06;4.95;;;3.30;;
82415;SDS011;72058;47.782;10.618;2024-02-16T05:11:32;4.68;;;3.97;;
82415;SDS011;72058;47.782;10.618;2024-02-16T05:13:57;4.03;;;3.67;;
82415;SDS011;72058;47.782;10.618;2024-02-16T05:16:23;4.03;;;3.60;;
82415;SDS011;72058;47.782;10.618;2024-02-16T05:18:49;4.47;;;3.50;;
82415;SDS011;72058;47.782;10.618;2024-02-16T05:21:14;5.90;;;4.10;;
82415;SDS011;72058;47.782;10.618;2024-02-16T05:23:39;4.13;;;3.70;;
82415;SDS011;72058;47.782;10.618;2024-02-16T05:26:05;4.23;;;3.83;;
82415;SDS011;72058;47.782;10.618;2024-02-16T05:28:30;6.80;;;4.63;;
82415;SDS011;72058;47.782;10.618;2024-02-16T05:30:56;5.68;;;4.82;;
82415;SDS011;72058;47.782;10.618;2024-02-16T05:33:22;7.13;;;5.43;;
82415;SDS011;72058;47.782;10.618;2024-02-16T05:35:48;5.17;;;4.50;;
82415;SDS011;72058;47.782;10.618;2024-02-16T05:38:19;9.07;;;6.07;;
82415;SDS011;72058;47.782;10.618;2024-02-16T05:40:57;6.57;;;4.13;;
82415;SDS011;72058;47.782;10.618;2024-02-16T05:43:23;7.25;;;5.55;;
82415;SDS011;72058;47.782;10.618;2024-02-16T05:45:49;5.65;;;4.30;;
82415;SDS011;72058;47.782;10.618;2024-02-16T05:48:15;5.38;;;3.97;;
82415;SDS011;72058;47.782;10.618;2024-02-16T05:50:40;4.63;;;3.65;;
82415;SDS011;72058;47.782;10.618;2024-02-16T05:53:09;4.28;;;3.47;;
82415;SDS011;72058;47.782;10.618;2024-02-16T05:55:35;4.90;;;4.40;;
82415;SDS011;72058;47.782;10.618;2024-02-16T05:58:01;5.90;;;4.53;;
82415;SDS011;72058;47.782;10.618;2024-02-16T06:00:26;5.07;;;3.83;;
82415;SDS011;72058;47.782;10.618;2024-02-16T06:02:52;4.90;;;4.28;;
82415;SDS011;72058;47.782;10.618;2024-02-16T06:05:18;5.95;;;4.85;;
82415;SDS011;72058;47.782;10.618;2024-02-16T06:07:45;6.88;;;4.93;;
82415;SDS011;72058;47.782;10.618;2024-02-16T06:10:10;4.70;;;4.22;;
82415;SDS011;72058;47.782;10.618;2024-02-16T06:12:37;5.78;;;5.03;;
82415;SDS011;72058;47.782;10.618;2024-02-16T06:15:03;4.88;;;4.43;;
82415;SDS011;72058;47.782;10.618;2024-02-16T06:17:29;4.90;;;4.47;;
82415;SDS011;72058;47.782;10.618;2024-02-16T06:19:54;6.27;;;4.40;;
82415;SDS011;72058;47.782;10.618;2024-02-16T06:22:20;5.23;;;4.47;;
82415;SDS011;72058;47.782;10.618;2024-02-16T06:24:45;5.33;;;4.30;;
82415;SDS011;72058;47.782;10.618;2024-02-16T06:27:10;5.43;;;4.13;;
82415;SDS011;72058;47.782;10.618;2024-02-16T06:29:36;5.03;;;3.83;;
82415;SDS011;72058;47.782;10.618;2024-02-16T06:32:01;5.15;;;4.75;;
82415;SDS011;72058;47.782;10.618;2024-02-16T06:34:30;7.38;;;4.63;;
82415;SDS011;72058;47.782;10.618;2024-02-16T06:36:56;5.38;;;4.32;;
82415;SDS011;72058;47.782;10.618;2024-02-16T06:39:21;5.30;;;4.78;;
82415;SDS011;72058;47.782;10.618;2024-02-16T06:41:47;6.00;;;4.28;;
82415;SDS011;72058;47.782;10.618;2024-02-16T06:46:39;5.47;;;4.18;;
82415;SDS011;72058;47.782;10.618;2024-02-16T06:49:05;7.28;;;4.82;;
82415;SDS011;72058;47.782;10.618;2024-02-16T06:51:31;5.07;;;4.40;;
82415;SDS011;72058;47.782;10.618;2024-02-16T06:53:56;6.43;;;4.82;;
82415;SDS011;72058;47.782;10.618;2024-02-16T06:56:21;5.50;;;4.47;;
82415;SDS011;72058;47.782;10.618;2024-02-16T06:58:47;4.65;;;4.20;;
82415;SDS011;72058;47.782;10.618;2024-02-16T07:01:13;7.50;;;4.68;;
82415;SDS011;72058;47.782;10.618;2024-02-16T07:03:38;5.28;;;4.78;;
82415;SDS011;72058;47.782;10.618;2024-02-16T07:06:04;7.10;;;5.18;;
82415;SDS011;72058;47.782;10.618;2024-02-16T07:08:34;7.93;;;5.68;;
82415;SDS011;72058;47.782;10.618;2024-02-16T07:11:00;12.82;;;6.18;;
82415;SDS011;72058;47.782;10.618;2024-02-16T07:13:25;8.03;;;5.97;;
82415;SDS011;72058;47.782;10.618;2024-02-16T07:15:51;9.07;;;6.00;;
82415;SDS011;72058;47.782;10.618;2024-02-16T07:18:16;8.15;;;5.63;;
82415;SDS011;72058;47.782;10.618;2024-02-16T07:20:41;6.45;;;5.55;;
82415;SDS011;72058;47.782;10.618;2024-02-16T07:23:07;5.63;;;4.90;;
82415;SDS011;72058;47.782;10.618;2024-02-16T07:25:34;5.63;;;4.97;;
82415;SDS011;72058;47.782;10.618;2024-02-16T07:28:00;7.53;;;5.32;;
82415;SDS011;72058;47.782;10.618;2024-02-16T07:30:25;6.82;;;4.65;;
82415;SDS011;72058;47.782;10.618;2024-02-16T07:32:51;6.17;;;4.13;;
82415;SDS011;72058;47.782;10.618;2024-02-16T07:35:17;4.45;;;4.00;;
82415;SDS011;72058;47.782;10.618;2024-02-16T07:37:43;3.92;;;3.53;;
82415;SDS011;72058;47.782;10.618;2024-02-16T07:40:09;3.65;;;3.22;;
82415;SDS011;72058;47.782;10.618;2024-02-16T07:42:41;5.53;;;3.88;;
82415;SDS011;72058;47.782;10.618;2024-02-16T07:45:07;6.53;;;3.83;;
82415;SDS011;72058;47.782;10.618;2024-02-16T07:47:34;4.38;;;3.13;;
82415;SDS011;72058;47.782;10.618;2024-02-16T07:50:00;4.63;;;3.67;;
82415;SDS011;72058;47.782;10.618;2024-02-16T07:52:25;4.60;;;3.22;;
82415;SDS011;72058;47.782;10.618;2024-02-16T07:54:50;4.10;;;3.10;;
82415;SDS011;72058;47.782;10.618;2024-02-16T07:57:16;3.97;;;3.47;;
82415;SDS011;72058;47.782;10.618;2024-02-16T07:59:42;6.07;;;3.13;;
82415;SDS011;72058;47.782;10.618;2024-02-16T08:02:08;4.30;;;3.70;;
82415;SDS011;72058;47.782;10.618;2024-02-16T08:04:34;5.45;;;3.75;;
82415;SDS011;72058;47.782;10.618;2024-02-16T08:07:00;6.50;;;3.33;;
82415;SDS011;72058;47.782;10.618;2024-02-16T08:09:26;5.15;;;3.70;;
82415;SDS011;72058;47.782;10.618;2024-02-16T08:11:52;3.95;;;3.15;;
82415;SDS011;72058;47.782;10.618;2024-02-16T08:14:17;3.30;;;3.00;;
82415;SDS011;72058;47.782;10.618;2024-02-16T08:16:43;3.35;;;2.80;;
82415;SDS011;72058;47.782;10.618;2024-02-16T08:19:08;2.60;;;2.40;;
82415;SDS011;72058;47.782;10.618;2024-02-16T08:21:33;5.22;;;4.00;;
82415;SDS011;72058;47.782;10.618;2024-02-16T08:23:59;4.43;;;3.00;;
82415;SDS011;72058;47.782;10.618;2024-02-16T08:26:24;4.60;;;3.70;;
82415;SDS011;72058;47.782;10.618;2024-02-16T08:28:49;4.18;;;3.75;;
82415;SDS011;72058;47.782;10.618;2024-02-16T08:31:18;3.63;;;2.88;;
82415;SDS011;72058;47.782;10.618;2024-02-16T08:33:44;3.47;;;3.15;;
82415;SDS011;72058;47.782;10.618;2024-02-16T08:36:10;3.97;;;3.08;;
82415;SDS011;72058;47.782;10.618;2024-02-16T08:38:38;4.95;;;2.65;;
82415;SDS011;72058;47.782;10.618;2024-02-16T08:41:04;3.78;;;2.90;;
82415;SDS011;72058;47.782;10.618;2024-02-16T08:43:29;4.95;;;3.17;;
82415;SDS011;72058;47.782;10.618;2024-02-16T08:45:55;3.17;;;2.67;;
82415;SDS011;72058;47.782;10.618;2024-02-16T08:48:21;4.32;;;3.53;;
82415;SDS011;72058;47.782;10.618;2024-02-16T08:50:46;4.88;;;3.15;;
82415;SDS011;72058;47.782;10.618;2024-02-16T08:53:12;7.03;;;3.47;;
82415;SDS011;72058;47.782;10.618;2024-02-16T08:55:39;3.53;;;3.03;;
82415;SDS011;72058;47.782;10.618;2024-02-16T08:58:06;3.55;;;2.95;;
82415;SDS011;72058;47.782;10.618;2024-02-16T09:00:32;3.85;;;3.13;;
82415;SDS011;72058;47.782;10.618;2024-02-16T09:02:57;4.05;;;2.85;;
82415;SDS011;72058;47.782;10.618;2024-02-16T09:05:23;3.63;;;3.33;;
82415;SDS011;72058;47.782;10.618;2024-02-16T09:07:48;6.17;;;3.33;;
82415;SDS011;72058;47.782;10.618;2024-02-16T09:10:13;3.80;;;2.57;;
82415;SDS011;72058;47.782;10.618;2024-02-16T09:12:39;5.88;;;3.28;;
82415;SDS011;72058;47.782;10.618;2024-02-16T09:15:05;3.92;;;2.58;;
82415;SDS011;72058;47.782;10.618;2024-02-16T09:17:31;4.50;;;3.40;;
82415;SDS011;72058;47.782;10.618;2024-02-16T09:19:57;3.72;;;2.67;;
82415;SDS011;72058;47.782;10.618;2024-02-16T09:22:22;4.13;;;2.38;;
82415;SDS011;72058;47.782;10.618;2024-02-16T09:24:47;8.73;;;5.15;;
82415;SDS011;72058;47.782;10.618;2024-02-16T09:27:13;18.60;;;10.50;;
82415;SDS011;72058;47.782;10.618;2024-02-16T09:29:38;9.55;;;6.05;;
82415;SDS011;72058;47.782;10.618;2024-02-16T09:32:04;3.67;;;2.45;;
82415;SDS011;72058;47.782;10.618;2024-02-16T09:34:30;5.70;;;3.22;;
82415;SDS011;72058;47.782;10.618;2024-02-16T09:36:56;3.08;;;2.10;;
82415;SDS011;72058;47.782;10.618;2024-02-16T09:39:21;2.27;;;2.00;;
82415;SDS011;72058;47.782;10.618;2024-02-16T09:41:49;2.30;;;2.10;;
82415;SDS011;72058;47.782;10.618;2024-02-16T09:44:16;5.85;;;2.85;;
82415;SDS011;72058;47.782;10.618;2024-02-16T09:46:41;2.92;;;1.92;;
82415;SDS011;72058;47.782;10.618;2024-02-16T09:49:07;2.33;;;2.13;;
82415;SDS011;72058;47.782;10.618;2024-02-16T09:51:35;2.47;;;2.28;;
82415;SDS011;72058;47.782;10.618;2024-02-16T09:54:02;3.67;;;2.15;;
82415;SDS011;72058;47.782;10.618;2024-02-16T09:56:28;2.20;;;2.00;;
82415;SDS011;72058;47.782;10.618;2024-02-16T09:58:53;2.80;;;1.98;;
82415;SDS011;72058;47.782;10.618;2024-02-16T10:01:22;2.72;;;2.13;;
82415;SDS011;72058;47.782;10.618;2024-02-16T10:03:49;4.43;;;2.08;;
82415;SDS011;72058;47.782;10.618;2024-02-16T10:06:15;3.25;;;2.13;;
82415;SDS011;72058;47.782;10.618;2024-02-16T10:08:48;2.90;;;1.92;;
82415;SDS011;72058;47.782;10.618;2024-02-16T10:11:17;2.88;;;2.60;;
82415;SDS011;72058;47.782;10.618;2024-02-16T10:13:55;4.38;;;2.13;;
82415;SDS011;72058;47.782;10.618;2024-02-16T10:16:21;3.17;;;2.50;;
82415;SDS011;72058;47.782;10.618;2024-02-16T10:18:46;3.13;;;2.53;;
82415;SDS011;72058;47.782;10.618;2024-02-16T10:21:12;3.83;;;2.87;;
82415;SDS011;72058;47.782;10.618;2024-02-16T10:23:37;4.97;;;3.70;;
82415;SDS011;72058;47.782;10.618;2024-02-16T10:26:02;3.53;;;3.13;;
82415;SDS011;72058;47.782;10.618;2024-02-16T10:28:29;4.85;;;3.40;;
82415;SDS011;72058;47.782;10.618;2024-02-16T10:30:59;4.30;;;2.80;;
82415;SDS011;72058;47.782;10.618;2024-02-16T10:33:26;5.13;;;3.20;;
82415;SDS011;72058;47.782;10.618;2024-02-16T10:35:53;3.92;;;2.85;;
82415;SDS011;72058;47.782;10.618;2024-02-16T10:38:22;5.10;;;2.67;;
82415;SDS011;72058;47.782;10.618;2024-02-16T10:40:47;4.68;;;3.30;;
82415;SDS011;72058;47.782;10.618;2024-02-16T10:43:15;3.08;;;2.72;;
82415;SDS011;72058;47.782;10.618;2024-02-16T10:45:42;3.17;;;2.63;;
82415;SDS011;72058;47.782;10.618;2024-02-16T10:48:10;3.70;;;2.60;;
82415;SDS011;72058;47.782;10.618;2024-02-16T10:50:35;2.58;;;2.35;;
82415;SDS011;72058;47.782;10.618;2024-02-16T10:53:24;6.38;;;2.65;;
82415;SDS011;72058;47.782;10.618;2024-02-16T10:55:50;6.20;;;3.00;;
82415;SDS011;72058;47.782;10.618;2024-02-16T10:58:18;5.55;;;2.92;;
82415;SDS011;72058;47.782;10.618;2024-02-16T11:00:48;4.35;;;2.40;;
82415;SDS011;72058;47.782;10.618;2024-02-16T11:03:26;4.93;;;3.60;;
82415;SDS011;72058;47.782;10.618;2024-02-16T11:05:53;4.03;;;2.50;;
82415;SDS011;72058;47.782;10.618;2024-02-16T11:13:23;3.65;;;2.53;;
82415;SDS011;72058;47.782;10.618;2024-02-16T11:18:30;3.15;;;2.45;;
82415;SDS011;72058;47.782;10.618;2024-02-16T11:21:00;4.55;;;2.67;;
82415;SDS011;72058;47.782;10.618;2024-02-16T11:23:27;4.78;;;2.80;;
82415;SDS011;72058;47.782;10.618;2024-02-16T11:26:02;3.97;;;2.65;;
82415;SDS011;72058;47.782;10.618;2024-02-16T11:28:32;4.30;;;2.42;;
82415;SDS011;72058;47.782;10.618;2024-02-16T11:30:58;3.55;;;2.50;;
82415;SDS011;72058;47.782;10.618;2024-02-16T11:33:24;3.00;;;2.55;;
82415;SDS011;72058;47.782;10.618;2024-02-16T11:35:56;4.38;;;3.15;;
82415;SDS011;72058;47.782;10.618;2024-02-16T11:38:22;4.35;;;3.25;;
82415;SDS011;72058;47.782;10.618;2024-02-16T11:43:23;5.32;;;2.92;;
82415;SDS011;72058;47.782;10.618;2024-02-16T11:45:49;6.22;;;3.33;;
82415;SDS011;72058;47.782;10.618;2024-02-16T11:48:21;4.85;;;3.40;;
82415;SDS011;72058;47.782;10.618;2024-02-16T11:50:48;4.95;;;2.83;;
82415;SDS011;72058;47.782;10.618;2024-02-16T11:53:15;3.90;;;2.70;;
82415;SDS011;72058;47.782;10.618;2024-02-16T11:55:46;2.80;;;2.35;;
82415;SDS011;72058;47.782;10.618;2024-02-16T11:58:15;3.50;;;2.63;;
82415;SDS011;72058;47.782;10.618;2024-02-16T12:00:45;4.50;;;2.75;;
82415;SDS011;72058;47.782;10.618;2024-02-16T12:03:12;3.92;;;3.05;;
82415;SDS011;72058;47.782;10.618;2024-02-16T12:05:55;2.72;;;2.22;;
82415;SDS011;72058;47.782;10.618;2024-02-16T12:08:21;3.50;;;2.50;;
82415;SDS011;72058;47.782;10.618;2024-02-16T12:10:48;3.97;;;3.35;;
82415;SDS011;72058;47.782;10.618;2024-02-16T12:15:47;4.07;;;2.47;;
82415;SDS011;72058;47.782;10.618;2024-02-16T12:18:22;3.63;;;2.70;;
82415;SDS011;72058;47.782;10.618;2024-02-16T12:21:05;3.33;;;2.65;;
82415;SDS011;72058;47.782;10.618;2024-02-16T12:23:31;5.50;;;2.55;;
82415;SDS011;72058;47.782;10.618;2024-02-16T12:26:00;3.95;;;2.20;;
82415;SDS011;72058;47.782;10.618;2024-02-16T12:28:27;2.95;;;2.65;;
82415;SDS011;72058;47.782;10.618;2024-02-16T12:30:56;2.90;;;2.60;;
82415;SDS011;72058;47.782;10.618;2024-02-16T12:33:22;3.53;;;2.78;;
82415;SDS011;72058;47.782;10.618;2024-02-16T12:35:48;4.78;;;2.72;;
82415;SDS011;72058;47.782;10.618;2024-02-16T12:38:13;4.45;;;2.47;;
82415;SDS011;72058;47.782;10.618;2024-02-16T12:40:41;3.90;;;2.45;;
82415;SDS011;72058;47.782;10.618;2024-02-16T12:43:07;3.45;;;2.50;;
82415;SDS011;72058;47.782;10.618;2024-02-16T12:45:36;3.53;;;2.35;;
82415;SDS011;72058;47.782;10.618;2024-02-16T12:48:01;3.10;;;2.47;;
82415;SDS011;72058;47.782;10.618;2024-02-16T12:50:28;3.67;;;2.25;;
82415;SDS011;72058;47.782;10.618;2024-02-16T12:52:54;4.00;;;2.03;;
82415;SDS011;72058;47.782;10.618;2024-02-16T12:55:19;3.87;;;2.30;;
82415;SDS011;72058;47.782;10.618;2024-02-16T12:57:44;4.35;;;2.17;;
82415;SDS011;72058;47.782;10.618;2024-02-16T13:00:10;4.28;;;2.55;;
82415;SDS011;72058;47.782;10.618;2024-02-16T13:02:36;7.45;;;2.28;;
82415;SDS011;72058;47.782;10.618;2024-02-16T13:05:01;3.93;;;2.20;;
82415;SDS011;72058;47.782;10.618;2024-02-16T13:07:27;3.03;;;2.45;;
82415;SDS011;72058;47.782;10.618;2024-02-16T13:09:52;3.27;;;2.17;;
82415;SDS011;72058;47.782;10.618;2024-02-16T13:12:18;3.08;;;2.63;;
82415;SDS011;72058;47.782;10.618;2024-02-16T13:14:47;3.58;;;2.47;;
82415;SDS011;72058;47.782;10.618;2024-02-16T13:17:13;4.13;;;2.30;;
82415;SDS011;72058;47.782;10.618;2024-02-16T13:19:38;4.07;;;2.35;;
82415;SDS011;72058;47.782;10.618;2024-02-16T13:22:03;3.90;;;2.63;;
82415;SDS011;72058;47.782;10.618;2024-02-16T13:24:29;3.42;;;2.45;;
82415;SDS011;72058;47.782;10.618;2024-02-16T13:26:54;3.60;;;2.40;;
82415;SDS011;72058;47.782;10.618;2024-02-16T13:29:21;6.43;;;2.22;;
82415;SDS011;72058;47.782;10.618;2024-02-16T13:31:46;4.28;;;2.33;;
82415;SDS011;72058;47.782;10.618;2024-02-16T13:34:12;5.40;;;2.28;;
82415;SDS011;72058;47.782;10.618;2024-02-16T13:36:39;3.92;;;2.40;;
82415;SDS011;72058;47.782;10.618;2024-02-16T13:39:05;5.80;;;2.72;;
82415;SDS011;72058;47.782;10.618;2024-02-16T13:41:30;5.43;;;2.50;;
82415;SDS011;72058;47.782;10.618;2024-02-16T13:43:56;5.28;;;2.30;;
82415;SDS011;72058;47.782;10.618;2024-02-16T13:46:21;4.33;;;2.53;;
82415;SDS011;72058;47.782;10.618;2024-02-16T13:48:47;3.47;;;2.33;;
82415;SDS011;72058;47.782;10.618;2024-02-16T13:51:12;3.10;;;2.33;;
82415;SDS011;72058;47.782;10.618;2024-02-16T13:53:38;4.07;;;2.25;;
82415;SDS011;72058;47.782;10.618;2024-02-16T13:56:04;4.13;;;2.80;;
82415;SDS011;72058;47.782;10.618;2024-02-16T13:58:31;3.88;;;2.30;;
82415;SDS011;72058;47.782;10.618;2024-02-16T14:00:56;3.67;;;2.40;;
82415;SDS011;72058;47.782;10.618;2024-02-16T14:03:23;4.32;;;2.63;;
82415;SDS011;72058;47.782;10.618;2024-02-16T14:05:49;6.38;;;3.22;;
82415;SDS011;72058;47.782;10.618;2024-02-16T14:08:15;3.55;;;2.55;;
82415;SDS011;72058;47.782;10.618;2024-02-16T14:10:41;3.53;;;2.33;;
82415;SDS011;72058;47.782;10.618;2024-02-16T14:13:06;4.90;;;4.25;;
82415;SDS011;72058;47.782;10.618;2024-02-16T14:15:32;6.10;;;4.22;;
82415;SDS011;72058;47.782;10.618;2024-02-16T14:17:57;3.80;;;2.50;;
82415;SDS011;72058;47.782;10.618;2024-02-16T14:20:23;3.70;;;2.90;;
82415;SDS011;72058;47.782;10.618;2024-02-16T14:22:48;4.57;;;2.72;;
82415;SDS011;72058;47.782;10.618;2024-02-16T14:25:14;6.03;;;3.08;;
82415;SDS011;72058;47.782;10.618;2024-02-16T14:27:40;4.95;;;2.42;;
82415;SDS011;72058;47.782;10.618;2024-02-16T14:30:06;6.28;;;2.75;;
82415;SDS011;72058;47.782;10.618;2024-02-16T14:32:32;5.28;;;3.15;;
82415;SDS011;72058;47.782;10.618;2024-02-16T14:34:58;3.25;;;2.53;;
82415;SDS011;72058;47.782;10.618;2024-02-16T14:37:24;5.57;;;2.97;;
82415;SDS011;72058;47.782;10.618;2024-02-16T14:39:49;4.85;;;2.67;;
82415;SDS011;72058;47.782;10.618;2024-02-16T14:42:16;3.63;;;2.75;;